createdAt,value
2022-09-04T00:00:54.436Z,19.01
2022-09-04T00:01:54.431Z,18.80
2022-09-04T00:02:54.427Z,18.80
2022-09-04T00:03:54.524Z,19.01
2022-09-04T00:04:54.518Z,19.01
2022-09-04T00:05:54.359Z,18.96
2022-09-04T00:06:54.350Z,18.75
2022-09-04T00:07:54.361Z,18.75
2022-09-04T00:08:54.325Z,18.96
2022-09-04T00:09:54.314Z,18.85
2022-09-04T00:10:54.293Z,18.85
2022-09-04T00:11:54.290Z,18.85
2022-09-04T00:12:54.295Z,19.01
2022-09-04T00:13:54.244Z,19.01
2022-09-04T00:14:54.241Z,19.01
2022-09-04T00:15:54.230Z,18.91
2022-09-04T00:16:54.245Z,19.12
2022-09-04T00:17:54.224Z,18.96
2022-09-04T00:18:54.204Z,18.75
2022-09-04T00:19:54.170Z,18.75
2022-09-04T00:20:54.165Z,19.07
2022-09-04T00:21:55.123Z,18.91
2022-09-04T00:22:54.161Z,18.91
2022-09-04T00:23:54.115Z,19.01
2022-09-04T00:24:54.105Z,18.64
2022-09-04T00:25:54.087Z,18.75
2022-09-04T00:26:54.097Z,18.96
2022-09-04T00:27:54.090Z,18.80
2022-09-04T00:28:54.056Z,18.75
2022-09-04T00:29:54.055Z,18.85
2022-09-04T00:30:54.089Z,19.07
2022-09-04T00:31:54.008Z,19.01
2022-09-04T00:32:54.025Z,18.85
2022-09-04T00:33:53.978Z,18.85
2022-09-04T00:34:53.978Z,18.75
2022-09-04T00:35:53.958Z,19.01
2022-09-04T00:36:53.952Z,18.85
2022-09-04T00:37:53.934Z,18.58
2022-09-04T00:38:53.959Z,19.01
2022-09-04T00:39:53.949Z,18.85
2022-09-04T00:40:53.892Z,18.85
2022-09-04T00:41:53.876Z,19.01
2022-09-04T00:42:53.880Z,19.07
2022-09-04T00:43:53.878Z,19.01
2022-09-04T00:44:53.841Z,19.01
2022-09-04T00:45:53.873Z,18.96
2022-09-04T00:46:53.819Z,18.75
2022-09-04T00:47:53.799Z,18.80
2022-09-04T00:48:53.821Z,19.17
2022-09-04T00:49:53.770Z,18.75
2022-09-04T00:50:53.763Z,18.91
2022-09-04T00:51:53.743Z,18.96
2022-09-04T00:52:53.823Z,19.01
2022-09-04T00:53:53.750Z,18.85
2022-09-04T00:54:53.703Z,19.01
2022-09-04T00:55:53.694Z,18.80
2022-09-04T00:56:53.684Z,19.01
2022-09-04T00:57:53.684Z,18.80
2022-09-04T00:58:53.682Z,18.85
2022-09-04T00:59:53.642Z,19.01
2022-09-04T01:00:53.665Z,19.01
2022-09-04T01:01:53.756Z,18.80
2022-09-04T01:02:53.607Z,18.96
2022-09-04T01:03:53.613Z,19.01
2022-09-04T01:04:53.595Z,18.85
2022-09-04T01:05:53.573Z,18.80
2022-09-04T01:06:53.547Z,18.80
2022-09-04T01:07:53.557Z,18.80
2022-09-04T01:08:56.012Z,18.96
2022-09-04T01:09:53.506Z,18.80
2022-09-04T01:10:53.501Z,19.07
2022-09-04T01:11:53.485Z,18.96
2022-09-04T01:12:53.497Z,19.07
2022-09-04T01:13:53.458Z,18.96
2022-09-04T01:14:53.447Z,19.17
2022-09-04T01:15:53.427Z,19.17
2022-09-04T01:16:53.474Z,18.75
2022-09-04T01:17:53.434Z,18.91
2022-09-04T01:18:53.405Z,19.17
2022-09-04T01:19:53.386Z,18.96
2022-09-04T01:20:53.368Z,18.96
2022-09-04T01:21:53.350Z,18.85
2022-09-04T01:22:53.369Z,18.96
2022-09-04T01:23:53.340Z,18.85
2022-09-04T01:24:53.322Z,18.75
2022-09-04T01:25:53.323Z,19.01
2022-09-04T01:26:53.310Z,19.01
2022-09-04T01:27:53.291Z,19.01
2022-09-04T01:28:53.268Z,19.50
2022-09-04T01:29:53.241Z,18.96
2022-09-04T01:30:53.232Z,19.17
2022-09-04T01:31:53.256Z,19.28
2022-09-04T01:32:53.251Z,18.80
2022-09-04T01:33:53.206Z,19.17
2022-09-04T01:34:53.181Z,19.01
2022-09-04T01:35:53.171Z,19.01
2022-09-04T01:36:53.152Z,19.01
2022-09-04T01:37:53.155Z,18.96
2022-09-04T01:38:53.123Z,19.07
2022-09-04T01:39:53.158Z,19.07
2022-09-04T01:40:53.094Z,18.80
2022-09-04T01:41:53.091Z,19.07
2022-09-04T01:42:53.096Z,18.69
2022-09-04T01:43:53.054Z,19.01
2022-09-04T01:44:53.059Z,19.01
2022-09-04T01:45:53.222Z,19.28
2022-09-04T01:46:53.017Z,19.28
2022-09-04T01:47:53.028Z,18.85
2022-09-04T01:48:52.995Z,19.28
2022-09-04T01:49:52.986Z,18.96
2022-09-04T01:50:52.966Z,19.17
2022-09-04T01:51:52.946Z,18.96
2022-09-04T01:52:52.966Z,19.01
2022-09-04T01:53:52.927Z,19.28
2022-09-04T01:54:52.914Z,18.96
2022-09-04T01:55:52.896Z,18.96
2022-09-04T01:56:52.892Z,18.96
2022-09-04T01:57:52.896Z,19.23
2022-09-04T01:58:52.887Z,19.12
2022-09-04T01:59:53.785Z,19.07
2022-09-04T02:00:53.630Z,19.01
2022-09-04T02:01:52.871Z,19.12
2022-09-04T02:02:53.213Z,18.96
2022-09-04T02:03:52.809Z,19.17
2022-09-04T02:04:52.781Z,18.91
2022-09-04T02:05:52.776Z,18.96
2022-09-04T02:06:52.761Z,18.96
2022-09-04T02:07:52.770Z,19.01
2022-09-04T02:08:52.729Z,19.01
2022-09-04T02:09:53.899Z,19.07
2022-09-04T02:10:52.702Z,19.23
2022-09-04T02:11:53.553Z,19.17
2022-09-04T02:12:52.700Z,19.17
2022-09-04T02:13:52.653Z,18.96
2022-09-04T02:14:52.656Z,19.01
2022-09-04T02:15:52.632Z,19.23
2022-09-04T02:16:52.622Z,19.01
2022-09-04T02:17:52.630Z,19.17
2022-09-04T02:18:52.600Z,19.17
2022-09-04T02:19:52.602Z,19.23
2022-09-04T02:20:52.572Z,19.23
2022-09-04T02:21:52.553Z,19.23
2022-09-04T02:22:52.570Z,18.91
2022-09-04T02:23:52.525Z,19.17
2022-09-04T02:24:52.514Z,18.96
2022-09-04T02:25:52.494Z,19.17
2022-09-04T02:26:52.486Z,19.12
2022-09-04T02:27:52.494Z,19.17
2022-09-04T02:28:52.464Z,19.01
2022-09-04T02:29:52.445Z,19.01
2022-09-04T02:30:54.414Z,19.07
2022-09-04T02:31:52.452Z,19.23
2022-09-04T02:32:52.438Z,19.12
2022-09-04T02:33:52.461Z,19.01
2022-09-04T02:34:52.375Z,19.01
2022-09-04T02:35:52.367Z,19.23
2022-09-04T02:36:52.346Z,19.12
2022-09-04T02:37:52.367Z,18.91
2022-09-04T02:38:52.326Z,18.96
2022-09-04T02:39:52.350Z,19.12
2022-09-04T02:40:52.322Z,18.96
2022-09-04T02:41:52.298Z,18.96
2022-09-04T02:42:52.288Z,18.80
2022-09-04T02:43:52.266Z,19.01
2022-09-04T02:44:52.238Z,19.23
2022-09-04T02:45:52.238Z,19.28
2022-09-04T02:46:52.277Z,19.01
2022-09-04T02:47:52.241Z,19.23
2022-09-04T02:48:52.190Z,19.07
2022-09-04T02:49:52.180Z,19.07
2022-09-04T02:50:52.169Z,19.23
2022-09-04T02:51:52.159Z,19.28
2022-09-04T02:52:52.163Z,19.28
2022-09-04T02:53:52.131Z,19.17
2022-09-04T02:54:52.131Z,18.96
2022-09-04T02:55:52.112Z,19.07
2022-09-04T02:56:52.082Z,19.28
2022-09-04T02:57:52.100Z,19.23
2022-09-04T02:58:52.052Z,19.23
2022-09-04T02:59:52.051Z,19.66
2022-09-04T03:00:52.056Z,18.91
2022-09-04T03:01:52.112Z,19.23
2022-09-04T03:02:52.041Z,19.28
2022-09-04T03:03:52.011Z,19.34
2022-09-04T03:04:51.981Z,18.96
2022-09-04T03:05:51.964Z,19.01
2022-09-04T03:06:51.961Z,19.17
2022-09-04T03:07:51.970Z,19.12
2022-09-04T03:08:53.322Z,19.01
2022-09-04T03:09:51.916Z,19.07
2022-09-04T03:10:51.912Z,19.17
2022-09-04T03:11:51.902Z,19.07
2022-09-04T03:12:51.916Z,19.01
2022-09-04T03:13:51.870Z,19.23
2022-09-04T03:14:51.854Z,18.96
2022-09-04T03:15:51.890Z,19.12
2022-09-04T03:16:51.815Z,19.17
2022-09-04T03:17:51.840Z,18.96
2022-09-04T03:18:51.806Z,19.07
2022-09-04T03:19:51.786Z,18.96
2022-09-04T03:20:51.765Z,18.91
2022-09-04T03:21:51.776Z,18.96
2022-09-04T03:22:51.778Z,19.23
2022-09-04T03:23:51.726Z,19.12
2022-09-04T03:24:51.707Z,19.12
2022-09-04T03:25:51.708Z,18.91
2022-09-04T03:26:51.687Z,19.01
2022-09-04T03:27:51.718Z,19.12
2022-09-04T03:28:51.661Z,19.23
2022-09-04T03:29:51.658Z,19.07
2022-09-04T03:30:51.639Z,18.96
2022-09-04T03:31:51.720Z,18.85
2022-09-04T03:32:51.635Z,19.28
2022-09-04T03:33:51.599Z,19.50
2022-09-04T03:34:51.579Z,19.60
2022-09-04T03:35:51.581Z,19.23
2022-09-04T03:36:51.550Z,19.01
2022-09-04T03:37:51.610Z,19.17
2022-09-04T03:38:51.524Z,19.23
2022-09-04T03:39:51.546Z,19.17
2022-09-04T03:40:51.502Z,19.23
2022-09-04T03:41:51.490Z,19.12
2022-09-04T03:42:51.491Z,19.17
2022-09-04T03:43:51.462Z,19.17
2022-09-04T03:44:52.479Z,19.12
2022-09-04T03:45:51.442Z,19.55
2022-09-04T03:46:51.445Z,19.23
2022-09-04T03:47:51.438Z,19.50
2022-09-04T03:48:51.397Z,18.96
2022-09-04T03:49:51.382Z,19.01
2022-09-04T03:50:51.364Z,19.60
2022-09-04T03:51:51.352Z,19.07
2022-09-04T03:52:51.373Z,19.12
2022-09-04T03:53:51.323Z,19.12
2022-09-04T03:54:51.314Z,19.60
2022-09-04T03:55:52.096Z,19.01
2022-09-04T03:56:51.289Z,19.23
2022-09-04T03:57:51.304Z,19.55
2022-09-04T03:58:51.262Z,19.60
2022-09-04T03:59:51.245Z,19.23
2022-09-04T04:00:51.289Z,19.23
2022-09-04T04:01:51.245Z,19.23
2022-09-04T04:02:51.319Z,19.12
2022-09-04T04:03:51.196Z,19.23
2022-09-04T04:04:51.176Z,19.23
2022-09-04T04:05:51.173Z,19.23
2022-09-04T04:06:51.156Z,18.96
2022-09-04T04:07:51.167Z,19.60
2022-09-04T04:08:51.154Z,18.96
2022-09-04T04:09:51.126Z,19.66
2022-09-04T04:10:51.127Z,19.17
2022-09-04T04:11:51.094Z,19.87
2022-09-04T04:12:51.097Z,19.60
2022-09-04T04:13:51.073Z,19.55
2022-09-04T04:14:51.049Z,19.55
2022-09-04T04:15:51.077Z,19.60
2022-09-04T04:16:56.137Z,19.55
2022-09-04T04:17:52.037Z,19.17
2022-09-04T04:18:51.023Z,19.17
2022-09-04T04:19:50.999Z,19.17
2022-09-04T04:20:50.970Z,19.60
2022-09-04T04:21:50.979Z,19.60
2022-09-04T04:22:50.960Z,19.66
2022-09-04T04:23:50.940Z,19.12
2022-09-04T04:24:50.910Z,19.50
2022-09-04T04:25:52.705Z,19.01
2022-09-04T04:26:54.679Z,19.01
2022-09-04T04:27:50.906Z,19.66
2022-09-04T04:28:50.866Z,19.28
2022-09-04T04:29:50.853Z,19.60
2022-09-04T04:30:50.832Z,19.50
2022-09-04T04:31:50.898Z,19.66
2022-09-04T04:32:50.832Z,19.17
2022-09-04T04:33:50.800Z,19.55
2022-09-04T04:34:50.785Z,19.60
2022-09-04T04:35:50.773Z,19.17
2022-09-04T04:36:50.752Z,19.50
2022-09-04T04:37:50.773Z,19.60
2022-09-04T04:38:50.723Z,19.55
2022-09-04T04:39:50.776Z,19.55
2022-09-04T04:40:50.704Z,19.17
2022-09-04T04:41:50.693Z,19.28
2022-09-04T04:42:50.702Z,19.60
2022-09-04T04:43:50.669Z,19.23
2022-09-04T04:44:50.665Z,19.39
2022-09-04T04:45:50.644Z,19.50
2022-09-04T04:46:50.645Z,19.50
2022-09-04T04:47:50.644Z,19.55
2022-09-04T04:48:50.594Z,19.50
2022-09-04T04:49:50.586Z,19.55
2022-09-04T04:50:50.565Z,19.12
2022-09-04T04:51:50.555Z,19.60
2022-09-04T04:52:50.582Z,19.23
2022-09-04T04:53:50.536Z,19.23
2022-09-04T04:54:50.522Z,19.50
2022-09-04T04:55:50.532Z,19.71
2022-09-04T04:56:50.486Z,19.60
2022-09-04T04:57:50.507Z,19.50
2022-09-04T04:58:50.465Z,19.17
2022-09-04T04:59:50.462Z,19.55
2022-09-04T05:00:50.438Z,19.50
2022-09-04T05:01:50.509Z,19.23
2022-09-04T05:02:50.502Z,19.12
2022-09-04T05:03:50.398Z,19.55
2022-09-04T05:04:50.399Z,19.66
2022-09-04T05:05:50.378Z,19.12
2022-09-04T05:06:50.359Z,19.23
2022-09-04T05:07:50.369Z,19.17
2022-09-04T05:08:50.329Z,19.60
2022-09-04T05:09:50.320Z,19.12
2022-09-04T05:10:50.309Z,19.50
2022-09-04T05:11:50.289Z,19.55
2022-09-04T05:12:50.300Z,19.55
2022-09-04T05:13:51.515Z,19.50
2022-09-04T05:14:50.248Z,19.55
2022-09-04T05:16:07.824Z,19.17
2022-09-04T05:16:55.371Z,19.55
2022-09-04T05:17:50.248Z,19.66
2022-09-04T05:18:50.191Z,19.34
2022-09-04T05:19:50.435Z,19.55
2022-09-04T05:20:50.171Z,19.23
2022-09-04T05:21:50.184Z,19.60
2022-09-04T05:22:50.146Z,19.60
2022-09-04T05:23:50.132Z,19.55
2022-09-04T05:24:50.147Z,19.77
2022-09-04T05:25:51.104Z,19.17
2022-09-04T05:26:50.113Z,19.17
2022-09-04T05:27:50.081Z,19.55
2022-09-04T05:28:50.066Z,19.60
2022-09-04T05:29:50.052Z,19.66
2022-09-04T05:30:50.109Z,19.50
2022-09-04T05:31:50.056Z,19.50
2022-09-04T05:32:50.014Z,19.77
2022-09-04T05:33:50.012Z,19.60
2022-09-04T05:34:49.987Z,19.34
2022-09-04T05:35:49.974Z,19.17
2022-09-04T05:36:50.001Z,19.55
2022-09-04T05:37:49.945Z,19.23
2022-09-04T05:38:49.934Z,19.17
2022-09-04T05:39:49.977Z,19.17
2022-09-04T05:40:49.895Z,19.17
2022-09-04T05:41:49.919Z,19.60
2022-09-04T05:42:49.878Z,19.17
2022-09-04T05:43:49.869Z,19.28
2022-09-04T05:44:49.866Z,19.60
2022-09-04T05:45:49.846Z,19.17
2022-09-04T05:46:51.922Z,19.50
2022-09-04T05:47:49.863Z,19.17
2022-09-04T05:48:49.805Z,19.60
2022-09-04T05:49:49.786Z,19.55
2022-09-04T05:50:49.768Z,19.82
2022-09-04T05:51:49.787Z,19.12
2022-09-04T05:52:49.738Z,19.23
2022-09-04T05:53:49.730Z,19.60
2022-09-04T05:54:49.717Z,19.82
2022-09-04T05:55:49.706Z,19.28
2022-09-04T05:56:49.727Z,19.60
2022-09-04T05:57:49.680Z,19.28
2022-09-04T05:58:49.767Z,19.87
2022-09-04T05:59:49.669Z,19.55
2022-09-04T06:00:49.631Z,19.55
2022-09-04T06:01:51.975Z,19.17
2022-09-04T06:02:49.660Z,19.23
2022-09-04T06:03:49.600Z,19.66
2022-09-04T06:04:49.589Z,19.66
2022-09-04T06:05:49.639Z,19.55
2022-09-04T06:06:49.579Z,19.23
2022-09-04T06:07:49.548Z,19.55
2022-09-04T06:08:49.542Z,19.82
2022-09-04T06:09:49.523Z,19.71
2022-09-04T06:10:49.524Z,19.60
2022-09-04T06:11:49.492Z,19.55
2022-09-04T06:12:49.495Z,19.55
2022-09-04T06:13:49.470Z,19.55
2022-09-04T06:14:49.463Z,19.23
2022-09-04T06:15:49.541Z,19.60
2022-09-04T06:16:49.425Z,19.77
2022-09-04T06:17:49.415Z,19.66
2022-09-04T06:18:49.393Z,19.23
2022-09-04T06:19:49.403Z,19.71
2022-09-04T06:20:49.393Z,19.17
2022-09-04T06:21:49.364Z,19.77
2022-09-04T06:22:52.699Z,19.55
2022-09-04T06:23:50.335Z,19.17
2022-09-04T06:24:49.331Z,19.87
2022-09-04T06:25:49.334Z,19.60
2022-09-04T06:26:49.285Z,19.82
2022-09-04T06:27:49.277Z,19.77
2022-09-04T06:28:49.264Z,19.55
2022-09-04T06:29:49.256Z,19.55
2022-09-04T06:30:49.263Z,19.55
2022-09-04T06:31:49.247Z,19.77
2022-09-04T06:32:49.422Z,19.17
2022-09-04T06:33:49.198Z,19.12
2022-09-04T06:34:49.186Z,19.60
2022-09-04T06:35:49.204Z,19.77
2022-09-04T06:36:49.198Z,19.66
2022-09-04T06:37:49.149Z,19.82
2022-09-04T06:38:49.128Z,19.55
2022-09-04T06:39:49.169Z,19.66
2022-09-04T06:40:49.109Z,19.60
2022-09-04T06:41:49.116Z,19.55
2022-09-04T06:42:49.092Z,19.77
2022-09-04T06:43:49.069Z,19.50
2022-09-04T06:44:50.058Z,19.71
2022-09-04T06:45:49.032Z,19.77
2022-09-04T06:46:49.089Z,19.66
2022-09-04T06:47:49.014Z,19.55
2022-09-04T06:48:49.021Z,19.55
2022-09-04T06:49:49.012Z,19.60
2022-09-04T06:50:48.982Z,19.60
2022-09-04T06:51:48.982Z,19.71
2022-09-04T06:52:48.948Z,19.55
2022-09-04T06:53:48.932Z,19.60
2022-09-04T06:54:48.932Z,19.50
2022-09-04T06:55:48.933Z,19.71
2022-09-04T06:56:49.069Z,19.66
2022-09-04T06:57:48.873Z,19.55
2022-09-04T06:58:48.871Z,19.50
2022-09-04T06:59:48.854Z,19.60
2022-09-04T07:00:48.853Z,19.23
2022-09-04T07:01:48.937Z,19.60
2022-09-04T07:02:48.879Z,19.60
2022-09-04T07:03:48.794Z,19.66
2022-09-04T07:04:48.804Z,19.60
2022-09-04T07:05:48.766Z,19.50
2022-09-04T07:06:48.814Z,19.77
2022-09-04T07:07:48.746Z,19.55
2022-09-04T07:08:48.735Z,19.55
2022-09-04T07:09:48.724Z,19.60
2022-09-04T07:10:48.715Z,19.77
2022-09-04T07:11:48.726Z,19.87
2022-09-04T07:12:48.676Z,19.82
2022-09-04T07:13:48.663Z,19.77
2022-09-04T07:14:48.674Z,19.50
2022-09-04T07:15:48.919Z,19.60
2022-09-04T07:16:48.637Z,19.77
2022-09-04T07:17:48.609Z,19.82
2022-09-04T07:18:49.598Z,19.55
2022-09-04T07:19:48.590Z,19.60
2022-09-04T07:20:48.587Z,19.39
2022-09-04T07:21:48.578Z,19.77
2022-09-04T07:22:48.559Z,19.71
2022-09-04T07:23:48.528Z,19.66
2022-09-04T07:24:48.521Z,19.77
2022-09-04T07:25:48.518Z,19.71
2022-09-04T07:26:48.560Z,19.55
2022-09-04T07:27:48.491Z,19.55
2022-09-04T07:28:48.469Z,19.55
2022-09-04T07:29:48.474Z,19.44
2022-09-04T07:30:48.467Z,19.77
2022-09-04T07:31:48.433Z,19.82
2022-09-04T07:32:48.410Z,19.71
2022-09-04T07:33:48.393Z,19.66
2022-09-04T07:34:48.388Z,19.60
2022-09-04T07:35:48.394Z,19.60
2022-09-04T07:36:48.362Z,19.82
2022-09-04T07:37:48.341Z,19.60
2022-09-04T07:38:50.831Z,19.87
2022-09-04T07:39:48.401Z,19.71
2022-09-04T07:40:48.329Z,19.60
2022-09-04T07:41:48.292Z,19.55
2022-09-04T07:42:48.283Z,19.50
2022-09-04T07:43:51.435Z,19.71
2022-09-04T07:44:49.283Z,19.71
2022-09-04T07:45:48.320Z,19.50
2022-09-04T07:46:48.233Z,19.71
2022-09-04T07:47:48.206Z,19.77
2022-09-04T07:48:48.195Z,19.93
2022-09-04T07:49:48.184Z,19.50
2022-09-04T07:50:48.210Z,19.60
2022-09-04T07:51:48.157Z,19.66
2022-09-04T07:52:48.156Z,19.77
2022-09-04T07:53:48.137Z,19.60
2022-09-04T07:54:48.126Z,19.60
2022-09-04T07:55:48.127Z,19.77
2022-09-04T07:56:48.115Z,19.55
2022-09-04T07:57:48.088Z,19.66
2022-09-04T07:58:48.077Z,19.71
2022-09-04T07:59:48.056Z,19.71
2022-09-04T08:00:48.068Z,19.66
2022-09-04T08:01:48.120Z,19.71
2022-09-04T08:02:48.048Z,19.66
2022-09-04T08:03:53.722Z,19.71
2022-09-04T08:04:49.036Z,19.77
2022-09-04T08:05:48.016Z,19.55
2022-09-04T08:06:47.999Z,19.77
2022-09-04T08:07:47.950Z,19.55
2022-09-04T08:08:47.939Z,19.39
2022-09-04T08:09:47.930Z,19.82
2022-09-04T08:10:47.951Z,19.44
2022-09-04T08:11:47.894Z,19.93
2022-09-04T08:12:47.890Z,19.71
2022-09-04T08:13:47.871Z,19.55
2022-09-04T08:14:47.864Z,19.66
2022-09-04T08:15:47.975Z,19.87
2022-09-04T08:16:47.849Z,19.60
2022-09-04T08:17:47.823Z,19.82
2022-09-04T08:18:47.820Z,19.71
2022-09-04T08:19:47.792Z,19.55
2022-09-04T08:20:47.812Z,19.82
2022-09-04T08:21:47.763Z,19.60
2022-09-04T08:22:47.753Z,19.71
2022-09-04T08:23:47.741Z,19.66
2022-09-04T08:24:47.734Z,19.82
2022-09-04T08:25:47.753Z,19.77
2022-09-04T08:26:47.706Z,19.55
2022-09-04T08:27:47.691Z,19.77
2022-09-04T08:28:47.678Z,19.82
2022-09-04T08:29:47.663Z,19.77
2022-09-04T08:30:47.779Z,19.77
2022-09-04T08:31:47.646Z,19.82
2022-09-04T08:32:47.626Z,19.82
2022-09-04T08:33:47.606Z,19.55
2022-09-04T08:34:47.596Z,19.50
2022-09-04T08:35:47.609Z,19.82
2022-09-04T08:36:47.589Z,19.77
2022-09-04T08:37:47.556Z,19.82
2022-09-04T08:38:47.547Z,19.55
2022-09-04T08:39:47.570Z,19.60
2022-09-04T08:40:50.751Z,19.71
2022-09-04T08:41:47.498Z,19.50
2022-09-04T08:42:47.489Z,19.82
2022-09-04T08:43:47.471Z,19.82
2022-09-04T08:44:47.480Z,19.55
2022-09-04T08:45:47.586Z,19.71
2022-09-04T08:46:47.615Z,19.82
2022-09-04T08:47:47.419Z,19.60
2022-09-04T08:48:47.409Z,19.82
2022-09-04T08:49:47.391Z,19.71
2022-09-04T08:50:47.410Z,19.82
2022-09-04T08:51:47.393Z,19.60
2022-09-04T08:52:47.363Z,19.55
2022-09-04T08:53:47.350Z,19.82
2022-09-04T08:54:47.332Z,19.77
2022-09-04T08:55:47.331Z,19.55
2022-09-04T08:56:47.308Z,19.82
2022-09-04T08:57:47.301Z,19.82
2022-09-04T08:58:48.172Z,19.71
2022-09-04T08:59:47.263Z,19.77
2022-09-04T09:00:47.283Z,19.82
2022-09-04T09:01:47.293Z,19.77
2022-09-04T09:02:47.298Z,19.77
2022-09-04T09:03:47.214Z,19.82
2022-09-04T09:04:47.204Z,19.77
2022-09-04T09:05:47.208Z,19.87
2022-09-04T09:06:47.177Z,19.77
2022-09-04T09:07:47.154Z,19.66
2022-09-04T09:08:47.146Z,19.55
2022-09-04T09:09:47.125Z,19.55
2022-09-04T09:10:47.169Z,19.55
2022-09-04T09:11:47.108Z,19.66
2022-09-04T09:12:47.095Z,19.93
2022-09-04T09:13:47.079Z,19.60
2022-09-04T09:14:47.068Z,19.77
2022-09-04T09:15:47.074Z,19.77
2022-09-04T09:16:47.093Z,19.66
2022-09-04T09:17:47.051Z,19.60
2022-09-04T09:18:47.017Z,19.66
2022-09-04T09:19:47.016Z,19.82
2022-09-04T09:20:47.015Z,19.60
2022-09-04T09:21:46.970Z,19.66
2022-09-04T09:22:46.960Z,19.82
2022-09-04T09:23:46.948Z,19.82
2022-09-04T09:24:46.929Z,19.66
2022-09-04T09:25:46.953Z,19.60
2022-09-04T09:26:46.909Z,19.60
2022-09-04T09:27:46.891Z,19.55
2022-09-04T09:28:46.881Z,19.66
2022-09-04T09:29:46.863Z,19.87
2022-09-04T09:30:46.967Z,19.77
2022-09-04T09:31:46.844Z,19.77
2022-09-04T09:32:46.842Z,19.77
2022-09-04T09:33:46.821Z,19.66
2022-09-04T09:34:46.805Z,19.66
2022-09-04T09:35:46.813Z,19.55
2022-09-04T09:36:46.776Z,19.60
2022-09-04T09:37:46.762Z,19.66
2022-09-04T09:38:46.751Z,19.82
2022-09-04T09:39:46.770Z,19.82
2022-09-04T09:40:46.766Z,19.60
2022-09-04T09:41:46.704Z,19.77
2022-09-04T09:42:46.696Z,19.60
2022-09-04T09:43:46.675Z,19.82
2022-09-04T09:44:46.679Z,19.60
2022-09-04T09:45:46.693Z,19.77
2022-09-04T09:46:46.646Z,19.77
2022-09-04T09:47:46.630Z,19.82
2022-09-04T09:48:46.625Z,19.82
2022-09-04T09:49:46.600Z,19.55
2022-09-04T09:50:46.619Z,19.66
2022-09-04T09:51:46.590Z,19.87
2022-09-04T09:52:46.567Z,19.82
2022-09-04T09:53:47.516Z,19.87
2022-09-04T09:54:46.546Z,19.82
2022-09-04T09:55:46.553Z,19.82
2022-09-04T09:56:46.744Z,19.77
2022-09-04T09:57:47.534Z,19.60
2022-09-04T09:58:46.480Z,19.71
2022-09-04T09:59:46.471Z,19.66
2022-09-04T10:00:46.536Z,19.77
2022-09-04T10:01:46.461Z,19.87
2022-09-04T10:02:46.518Z,19.82
2022-09-04T10:03:46.418Z,19.77
2022-09-04T10:04:46.410Z,19.77
2022-09-04T10:05:46.412Z,19.82
2022-09-04T10:06:46.386Z,19.55
2022-09-04T10:07:46.362Z,19.66
2022-09-04T10:08:46.353Z,19.60
2022-09-04T10:09:46.363Z,19.82
2022-09-04T10:10:46.355Z,19.77
2022-09-04T10:11:46.324Z,19.55
2022-09-04T10:12:46.303Z,19.39
2022-09-04T10:13:46.283Z,19.82
2022-09-04T10:14:46.284Z,19.55
2022-09-04T10:15:46.283Z,19.77
2022-09-04T10:16:46.368Z,19.71
2022-09-04T10:17:46.232Z,19.55
2022-09-04T10:18:46.227Z,19.77
2022-09-04T10:19:46.205Z,19.77
2022-09-04T10:20:46.231Z,19.82
2022-09-04T10:21:46.181Z,19.77
2022-09-04T10:22:46.174Z,19.50
2022-09-04T10:23:46.156Z,19.87
2022-09-04T10:24:46.169Z,19.82
2022-09-04T10:25:46.127Z,19.82
2022-09-04T10:26:46.168Z,19.55
2022-09-04T10:27:46.098Z,19.77
2022-09-04T10:28:46.088Z,19.71
2022-09-04T10:29:46.083Z,19.55
2022-09-04T10:30:46.135Z,19.77
2022-09-04T10:31:46.069Z,19.60
2022-09-04T10:32:46.071Z,19.82
2022-09-04T10:33:46.020Z,19.77
2022-09-04T10:34:46.019Z,19.82
2022-09-04T10:35:46.000Z,19.66
2022-09-04T10:36:46.011Z,19.77
2022-09-04T10:37:45.971Z,19.50
2022-09-04T10:38:45.963Z,19.82
2022-09-04T10:39:46.000Z,19.50
2022-09-04T10:40:49.269Z,19.71
2022-09-04T10:41:46.945Z,19.82
2022-09-04T10:42:45.933Z,19.66
2022-09-04T10:43:45.894Z,19.66
2022-09-04T10:44:45.890Z,19.55
2022-09-04T10:45:45.919Z,19.66
2022-09-04T10:46:45.914Z,19.77
2022-09-04T10:47:45.846Z,19.82
2022-09-04T10:48:45.843Z,19.71
2022-09-04T10:49:45.817Z,19.55
2022-09-04T10:50:45.824Z,19.77
2022-09-04T10:51:45.821Z,19.60
2022-09-04T10:52:45.777Z,19.55
2022-09-04T10:53:45.767Z,19.60
2022-09-04T10:54:45.770Z,19.66
2022-09-04T10:55:45.740Z,19.60
2022-09-04T10:56:45.758Z,19.77
2022-09-04T10:57:45.723Z,19.66
2022-09-04T10:58:45.709Z,19.66
2022-09-04T10:59:45.690Z,19.55
2022-09-04T11:00:45.694Z,19.66
2022-09-04T11:01:45.691Z,19.60
2022-09-04T11:02:45.701Z,19.71
2022-09-04T11:03:45.649Z,19.60
2022-09-04T11:04:45.623Z,19.44
2022-09-04T11:05:45.642Z,19.66
2022-09-04T11:06:45.601Z,19.71
2022-09-04T11:07:45.628Z,19.77
2022-09-04T11:08:45.573Z,19.87
2022-09-04T11:09:45.564Z,19.55
2022-09-04T11:10:45.594Z,19.60
2022-09-04T11:11:45.545Z,19.82
2022-09-04T11:12:45.536Z,19.66
2022-09-04T11:13:50.616Z,19.60
2022-09-04T11:14:46.505Z,19.66
2022-09-04T11:15:45.538Z,19.60
2022-09-04T11:16:45.511Z,19.93
2022-09-04T11:17:45.478Z,19.77
2022-09-04T11:18:45.457Z,19.77
2022-09-04T11:19:45.447Z,19.77
2022-09-04T11:20:45.461Z,19.82
2022-09-04T11:21:45.428Z,19.87
2022-09-04T11:22:45.408Z,19.93
2022-09-04T11:23:45.398Z,19.82
2022-09-04T11:24:45.380Z,19.87
2022-09-04T11:25:45.402Z,19.82
2022-09-04T11:26:45.352Z,19.66
2022-09-04T11:27:45.352Z,19.23
2022-09-04T11:28:45.360Z,19.87
2022-09-04T11:29:45.329Z,19.77
2022-09-04T11:30:48.266Z,19.60
2022-09-04T11:31:45.350Z,19.82
2022-09-04T11:32:45.283Z,19.66
2022-09-04T11:33:45.284Z,19.87
2022-09-04T11:34:45.262Z,19.82
2022-09-04T11:35:45.295Z,19.71
2022-09-04T11:36:45.261Z,19.66
2022-09-04T11:37:45.246Z,19.60
2022-09-04T11:38:45.224Z,19.71
2022-09-04T11:39:45.269Z,19.66
2022-09-04T11:40:45.198Z,19.82
2022-09-04T11:41:45.207Z,19.77
2022-09-04T11:42:45.157Z,19.82
2022-09-04T11:43:45.159Z,19.82
2022-09-04T11:44:45.138Z,19.82
2022-09-04T11:45:45.179Z,19.17
2022-09-04T11:46:45.140Z,19.60
2022-09-04T11:47:45.110Z,19.55
2022-09-04T11:48:45.091Z,19.71
2022-09-04T11:49:45.080Z,19.55
2022-09-04T11:50:45.086Z,19.87
2022-09-04T11:51:45.091Z,19.82
2022-09-04T11:52:45.042Z,19.60
2022-09-04T11:53:45.053Z,19.87
2022-09-04T11:54:45.021Z,19.66
2022-09-04T11:55:46.596Z,19.82
2022-09-04T11:56:44.997Z,19.82
2022-09-04T11:57:44.993Z,19.71
2022-09-04T11:58:44.977Z,19.87
2022-09-04T11:59:44.976Z,19.93
2022-09-04T12:00:44.974Z,19.60
2022-09-04T12:01:47.812Z,19.55
2022-09-04T12:02:44.935Z,19.34
2022-09-04T12:03:45.004Z,19.66
2022-09-04T12:04:44.917Z,19.93
2022-09-04T12:05:44.944Z,20.25
2022-09-04T12:06:44.894Z,19.93
2022-09-04T12:07:44.881Z,20.30
2022-09-04T12:08:44.884Z,20.25
2022-09-04T12:09:44.850Z,19.71
2022-09-04T12:10:44.890Z,20.25
2022-09-04T12:11:44.830Z,20.30
2022-09-04T12:12:44.845Z,19.66
2022-09-04T12:13:44.840Z,19.77
2022-09-04T12:14:44.813Z,20.25
2022-09-04T12:15:44.782Z,19.87
2022-09-04T12:16:44.913Z,19.82
2022-09-04T12:17:44.753Z,19.93
2022-09-04T12:18:44.799Z,19.87
2022-09-04T12:19:44.764Z,20.25
2022-09-04T12:20:44.727Z,19.60
2022-09-04T12:21:44.714Z,19.82
2022-09-04T12:22:44.704Z,19.87
2022-09-04T12:23:44.695Z,19.71
2022-09-04T12:24:44.696Z,20.30
2022-09-04T12:25:44.666Z,20.25
2022-09-04T12:26:51.715Z,20.30
2022-09-04T12:27:45.667Z,19.93
2022-09-04T12:28:44.629Z,19.77
2022-09-04T12:29:44.678Z,20.25
2022-09-04T12:30:44.598Z,19.66
2022-09-04T12:31:44.728Z,19.87
2022-09-04T12:32:45.686Z,19.77
2022-09-04T12:33:44.570Z,19.60
2022-09-04T12:34:44.720Z,19.77
2022-09-04T12:35:44.626Z,20.14
2022-09-04T12:36:44.632Z,19.71
2022-09-04T12:37:44.583Z,19.77
2022-09-04T12:38:44.561Z,20.20
2022-09-04T12:39:44.590Z,20.20
2022-09-04T12:40:44.483Z,20.14
2022-09-04T12:41:48.055Z,20.14
2022-09-04T12:42:45.453Z,20.14
2022-09-04T12:43:44.453Z,20.25
2022-09-04T12:44:44.474Z,20.14
2022-09-04T12:45:44.473Z,19.87
2022-09-04T12:46:44.405Z,19.77
2022-09-04T12:47:44.398Z,19.60
2022-09-04T12:48:44.375Z,19.87
2022-09-04T12:49:44.395Z,20.46
2022-09-04T12:50:44.357Z,20.25
2022-09-04T12:51:44.347Z,19.82
2022-09-04T12:52:44.459Z,19.87